Main page
METAR-TAF:

METAR-TAF

Airports :

Diori Hamani International Airport

Niamey, Niger

latitude: 13-29N, longitude: 002-10E, elevation: 223 m

Current weather observation

The report was made 30 minutes ago, at 00:00 UTC
Wind 5 kt from the Northwest
Temperature 30°C
Humidity 9%
Pressure 1006 hPa
Visibility 10 km or more
no clouds below 1500 m and no cumulonimbus

METAR: DRRN 110000Z 32005KT CAVOK 30/M06 Q1006 NOSIG

Time: 01:30 (00:30 UTC)

Forecast

The report was made 1 hour and 30 minutes ago, at 23:00 UTC
Forecast valid from 11 at 00 UTC to 12 at 06 UTC
Wind 8 kt from the North
Visibility: 6000 m
Temporary
from 11 at 06 UTC to 11 at 08 UTC
Visibility: 3500 m
widespread dust
Temporary
from 11 at 09 UTC to 11 at 12 UTC
Wind 16 kt from the East
Visibility: 3000 m
Blowing dust

TAF: DRRN 102300Z 1100/1206 01008KT 6000 NSC TEMPO 1106/1108 3500 DU TEMPO 1109/1112 08016KT 3000 BLDU

Weather observations and forecasts of more than 4000 airports (METAR and TAF reports).

The available stations are represented by yellow and red dots on the map.

Hover mouse over dot to see the name of the station.

Then click to see weather observations and forecasts.

To change the map : click on the green buttons with a black cross to zoom in, on the green button with a dash to zoom out, or on the green arrows for adjacent maps.


METAR-TAF: